Terminal Aerodrome Forecast
Issued by NWS

Home | Current Version | Previous Version | Text Only | Print | Product List | Glossary On
Versions: 1 2 3 4 5 6 7 8 9 10 11 12 13 14 15 16 17 18
000
FTUS43 KDLH 220253 AAA
TAFHIB
TAF AMD
KHIB 220253Z 2203/2224 30014KT P6SM -SN BKN025
     FM220400 30008KT P6SM BKN025
     FM220700 30006KT P6SM SCT035
     FM220900 28004KT P6SM SCT250
     FM221600 19005KT P6SM BKN040
     FM222100 18007KT 3SM -SN OVC025=

USA.gov is the U.S. government's official web portal to all federal, state and local government web resources and services.